createdAt,value
2023-04-28T00:00:39.249Z,101759.78
2023-04-28T00:03:07.079Z,101761.38
2023-04-28T00:05:34.902Z,101766.53
2023-04-28T00:08:03.333Z,101768.19
2023-04-28T00:10:32.129Z,101770.66
2023-04-28T00:12:59.889Z,101761.56
2023-04-28T00:15:27.688Z,101773.41
2023-04-28T00:17:56.933Z,101756.28
2023-04-28T00:20:24.671Z,101733.13
2023-04-28T00:22:52.377Z,101696.22
2023-04-28T00:25:20.109Z,101672.06
2023-04-28T00:27:47.832Z,101676.66
2023-04-28T00:30:15.844Z,101659.50
2023-04-28T00:32:43.589Z,101659.59
2023-04-28T00:35:12.710Z,101684.75
2023-04-28T00:37:40.638Z,101676.38
2023-04-28T00:40:09.493Z,101663.22
2023-04-28T00:42:37.380Z,101648.00
2023-04-28T00:45:06.573Z,101623.56
2023-04-28T00:47:34.740Z,101618.34
2023-04-28T00:50:02.972Z,101651.53
2023-04-28T00:52:32.568Z,101629.19
2023-04-28T00:55:00.612Z,101631.84
2023-04-28T00:57:28.328Z,101648.94
2023-04-28T00:59:56.022Z,101623.59
2023-04-28T01:02:24.576Z,101593.56
2023-04-28T01:04:54.343Z,101585.38
2023-04-28T01:07:22.381Z,101604.47
2023-04-28T01:09:51.468Z,101620.78
2023-04-28T01:12:19.185Z,101638.03
2023-04-28T01:14:47.412Z,101632.69
2023-04-28T01:17:15.601Z,101640.69
2023-04-28T01:19:43.360Z,101645.16
2023-04-28T01:22:14.129Z,101653.63
2023-04-28T01:24:43.271Z,101676.84
2023-04-28T01:27:11.387Z,101687.25
2023-04-28T01:29:39.097Z,101679.38
2023-04-28T01:32:06.901Z,101652.75
2023-04-28T01:34:34.649Z,101645.47
2023-04-28T01:37:02.400Z,101665.94
2023-04-28T01:39:30.145Z,101641.59
2023-04-28T01:41:59.262Z,101649.16
2023-04-28T01:44:27.204Z,101666.44
2023-04-28T01:46:54.991Z,101638.47
2023-04-28T01:49:22.857Z,101634.22
2023-04-28T01:51:50.719Z,101633.09
2023-04-28T01:54:18.704Z,101615.94
2023-04-28T01:56:46.664Z,101614.53
2023-04-28T01:59:16.191Z,101634.22
2023-04-28T02:01:43.998Z,101615.41
2023-04-28T02:04:11.793Z,101565.00
2023-04-28T02:06:39.589Z,101535.50
2023-04-28T02:09:07.323Z,101527.34
2023-04-28T02:11:35.063Z,101529.56
2023-04-28T02:14:02.807Z,101527.66
2023-04-28T02:16:33.240Z,101520.44
2023-04-28T02:19:01.062Z,101531.56
2023-04-28T02:21:28.931Z,101558.00
2023-04-28T02:23:56.689Z,101594.75
2023-04-28T02:26:24.435Z,101618.91
2023-04-28T02:28:52.237Z,101619.25
2023-04-28T02:31:20.181Z,101614.78
2023-04-28T02:33:49.392Z,101616.34
2023-04-28T02:36:17.130Z,101611.03
2023-04-28T02:38:44.994Z,101623.38
2023-04-28T02:41:13.149Z,101636.66
2023-04-28T02:43:40.888Z,101656.13
2023-04-28T02:46:09.043Z,101653.66
2023-04-28T02:48:37.359Z,101658.38
2023-04-28T02:51:06.727Z,101659.72
2023-04-28T02:53:34.429Z,101668.16
2023-04-28T02:56:04.429Z,101679.50
2023-04-28T02:58:32.374Z,101674.53
2023-04-28T03:01:00.196Z,101665.38
2023-04-28T03:03:28.147Z,101660.25
2023-04-28T03:05:56.926Z,101669.25
2023-04-28T03:08:26.253Z,101667.56
2023-04-28T03:10:54.005Z,101639.50
2023-04-28T03:13:21.739Z,101650.16
2023-04-28T03:15:49.440Z,101652.19
2023-04-28T03:18:17.360Z,101662.13
2023-04-28T03:20:45.127Z,101656.34
2023-04-28T03:23:12.845Z,101650.00
2023-04-28T03:25:41.889Z,101630.88
2023-04-28T03:28:10.742Z,101642.13
2023-04-28T03:30:38.470Z,101629.69
2023-04-28T03:33:06.870Z,101627.78
2023-04-28T03:35:34.716Z,101621.75
2023-04-28T03:38:02.464Z,101632.66
2023-04-28T03:40:30.196Z,101630.09
2023-04-28T03:42:59.770Z,101641.38
2023-04-28T03:45:27.544Z,101623.69
2023-04-28T03:47:55.282Z,101610.16
2023-04-28T03:50:24.764Z,101631.16
2023-04-28T03:52:53.830Z,101612.59
2023-04-28T03:55:21.723Z,101619.13
2023-04-28T03:57:49.502Z,101621.50
2023-04-28T04:00:19.052Z,101591.63
2023-04-28T04:02:46.913Z,101617.09
2023-04-28T04:05:15.060Z,101628.19
2023-04-28T04:07:42.881Z,101639.16
2023-04-28T04:10:11.111Z,101660.66
2023-04-28T04:12:38.799Z,101669.09
2023-04-28T04:15:07.797Z,101653.63
2023-04-28T04:17:36.965Z,101630.78
2023-04-28T04:20:05.062Z,101603.22
2023-04-28T04:22:32.782Z,101594.69
2023-04-28T04:25:00.552Z,101575.44
2023-04-28T04:27:28.381Z,101566.22
2023-04-28T04:29:56.156Z,101551.56
2023-04-28T04:32:24.017Z,101543.03
2023-04-28T04:34:53.136Z,101530.19
2023-04-28T04:37:20.954Z,101520.53
2023-04-28T04:39:48.690Z,101538.41
2023-04-28T04:42:24.724Z,101545.44
2023-04-28T04:44:53.457Z,101537.75
2023-04-28T04:47:21.190Z,101567.06
2023-04-28T04:49:49.867Z,101572.41
2023-04-28T04:52:19.853Z,101579.22
2023-04-28T04:54:47.596Z,101598.91
2023-04-28T04:57:15.322Z,101614.47
2023-04-28T04:59:43.062Z,101630.44
2023-04-28T05:02:11.023Z,101634.44
2023-04-28T05:04:38.948Z,101651.50
2023-04-28T05:07:06.818Z,101638.19
2023-04-28T05:09:36.017Z,101642.66
2023-04-28T05:12:03.802Z,101650.38
2023-04-28T05:14:31.658Z,101654.00
2023-04-28T05:16:59.585Z,101671.06
2023-04-28T05:19:27.481Z,101658.56
2023-04-28T05:21:55.248Z,101664.13
2023-04-28T05:24:23.968Z,101650.63
2023-04-28T05:26:54.112Z,101661.75
2023-04-28T05:29:22.024Z,101663.56
2023-04-28T05:31:49.880Z,101649.81
2023-04-28T05:34:18.054Z,101659.59
2023-04-28T05:36:46.248Z,101660.69
2023-04-28T05:39:14.040Z,101660.88
2023-04-28T05:41:41.831Z,101665.38
2023-04-28T05:44:11.193Z,101660.41
2023-04-28T05:46:39.100Z,101668.59
2023-04-28T05:49:06.978Z,101666.56
2023-04-28T05:51:34.780Z,101663.31
2023-04-28T05:54:02.564Z,101663.91
2023-04-28T05:56:30.523Z,101675.66
2023-04-28T05:58:58.636Z,101666.16
2023-04-28T06:01:27.824Z,101659.59
2023-04-28T06:03:58.102Z,101672.75
2023-04-28T06:06:26.533Z,101686.50
2023-04-28T06:08:54.550Z,101687.31
2023-04-28T06:11:22.917Z,101683.94
2023-04-28T06:13:51.321Z,101685.19
2023-04-28T06:16:19.418Z,101690.41
2023-04-28T06:18:49.800Z,101700.34
2023-04-28T06:21:18.041Z,101697.84
2023-04-28T06:23:46.037Z,101702.84
2023-04-28T06:26:14.768Z,101702.25
2023-04-28T06:28:43.935Z,101696.03
2023-04-28T06:31:11.658Z,101706.19
2023-04-28T06:33:39.430Z,101700.88
2023-04-28T06:36:09.271Z,101695.06
2023-04-28T06:38:37.508Z,101692.28
2023-04-28T06:41:05.367Z,101695.13
2023-04-28T06:43:33.441Z,101703.59
2023-04-28T06:46:01.401Z,101697.00
2023-04-28T06:48:29.213Z,101686.94
2023-04-28T06:50:56.983Z,101691.91
2023-04-28T06:53:26.047Z,101689.16
2023-04-28T06:55:53.862Z,101695.91
2023-04-28T06:58:21.930Z,101698.75
2023-04-28T07:00:49.791Z,101695.69
2023-04-28T07:03:17.692Z,101692.78
2023-04-28T07:05:45.502Z,101689.84
2023-04-28T07:08:13.423Z,101693.13
2023-04-28T07:10:43.035Z,101694.34
2023-04-28T07:13:11.159Z,101698.06
2023-04-28T07:15:39.238Z,101701.38
2023-04-28T07:18:07.506Z,101701.81
2023-04-28T07:20:35.435Z,101697.34
2023-04-28T07:23:03.175Z,101692.19
2023-04-28T07:25:30.970Z,101687.59
2023-04-28T07:28:00.187Z,101693.13
2023-04-28T07:30:28.480Z,101675.59
2023-04-28T07:32:56.563Z,101671.94
2023-04-28T07:35:24.496Z,101668.94
2023-04-28T07:37:52.428Z,101675.78
2023-04-28T07:40:20.914Z,101659.75
2023-04-28T07:42:48.991Z,101677.69
2023-04-28T07:45:18.159Z,101676.84
2023-04-28T07:47:45.964Z,101674.09
2023-04-28T07:50:13.797Z,101677.50
2023-04-28T07:52:41.498Z,101675.06
2023-04-28T07:55:09.789Z,101671.44
2023-04-28T07:57:37.946Z,101673.56
2023-04-28T08:00:07.039Z,101670.28
2023-04-28T08:02:36.315Z,101667.97
2023-04-28T08:05:04.498Z,101662.53
2023-04-28T08:07:32.367Z,101667.66
2023-04-28T08:10:01.127Z,101664.44
2023-04-28T08:12:28.854Z,101658.50
2023-04-28T08:14:56.667Z,101653.34
2023-04-28T08:17:24.725Z,101654.34
2023-04-28T08:19:53.859Z,101671.16
2023-04-28T08:22:21.586Z,101659.09
2023-04-28T08:24:49.272Z,101658.53
2023-04-28T08:27:17.075Z,101656.63
2023-04-28T08:29:44.809Z,101657.31
2023-04-28T08:32:12.595Z,101661.47
2023-04-28T08:34:40.275Z,101663.38
2023-04-28T08:37:09.424Z,101656.69
2023-04-28T08:39:37.324Z,101657.41
2023-04-28T08:42:05.754Z,101654.53
2023-04-28T08:44:38.594Z,101646.44
2023-04-28T08:47:13.498Z,101635.69
2023-04-28T08:49:41.936Z,101637.50
2023-04-28T08:52:13.998Z,101650.38
2023-04-28T08:54:42.103Z,101638.63
2023-04-28T08:57:10.933Z,101650.38
2023-04-28T08:59:41.082Z,101641.13
2023-04-28T09:02:09.626Z,101635.09
2023-04-28T09:04:37.740Z,101628.94
2023-04-28T09:07:13.708Z,101629.66
2023-04-28T09:09:42.011Z,101622.63
2023-04-28T09:12:09.775Z,101615.25
2023-04-28T09:14:38.981Z,101618.38
2023-04-28T09:17:12.197Z,101609.25
2023-04-28T09:19:42.908Z,101610.31
2023-04-28T09:22:25.684Z,101618.25
2023-04-28T09:24:56.205Z,101610.84
2023-04-28T09:27:28.972Z,101604.88
2023-04-28T09:29:56.865Z,101604.69
2023-04-28T09:32:25.960Z,101595.41
2023-04-28T09:34:56.811Z,101591.53
2023-04-28T09:37:27.174Z,101601.13
2023-04-28T09:39:56.512Z,101589.16
2023-04-28T09:42:34.898Z,101590.44
2023-04-28T09:45:03.472Z,101580.59
2023-04-28T09:47:33.345Z,101568.78
2023-04-28T09:50:03.004Z,101576.31
2023-04-28T09:52:30.828Z,101571.47
2023-04-28T09:55:01.831Z,101560.38
2023-04-28T09:57:32.352Z,101555.66
2023-04-28T10:00:00.964Z,101558.16
2023-04-28T10:05:00.401Z,101546.81
2023-04-28T10:07:30.753Z,101552.44
2023-04-28T10:10:00.132Z,101544.41
2023-04-28T10:12:28.543Z,101539.84
2023-04-28T10:14:57.187Z,101535.38
2023-04-28T10:17:27.368Z,101515.47
2023-04-28T10:19:55.774Z,101495.88
2023-04-28T10:22:38.135Z,101519.19
2023-04-28T10:25:28.634Z,101516.44
2023-04-28T10:27:58.668Z,101507.44
2023-04-28T10:30:29.844Z,101501.75
2023-04-28T10:33:29.678Z,101490.47
2023-04-28T10:35:57.871Z,101496.56
2023-04-28T10:38:25.639Z,101488.34
2023-04-28T10:40:55.423Z,101498.38
2023-04-28T10:43:39.347Z,101483.88
2023-04-28T10:46:08.661Z,101478.31
2023-04-28T10:49:06.902Z,101469.03
2023-04-28T10:51:35.365Z,101473.19
2023-04-28T10:54:23.761Z,101460.31
2023-04-28T10:57:23.490Z,101459.03
2023-04-28T10:59:52.316Z,101452.38
2023-04-28T11:02:43.815Z,101460.09
2023-04-28T11:05:14.476Z,101449.47
2023-04-28T11:07:42.785Z,101457.25
2023-04-28T11:10:10.535Z,101442.44
2023-04-28T11:13:18.127Z,101431.09
2023-04-28T11:16:04.196Z,101427.13
2023-04-28T11:18:39.316Z,101435.84
2023-04-28T11:21:07.491Z,101438.38
2023-04-28T11:23:35.412Z,101438.25
2023-04-28T11:26:03.549Z,101426.88
2023-04-28T11:28:32.645Z,101434.31
2023-04-28T11:31:12.502Z,101435.19
2023-04-28T11:33:42.160Z,101442.06
2023-04-28T11:36:23.674Z,101420.50
2023-04-28T11:38:51.403Z,101415.59
2023-04-28T11:41:19.326Z,101417.47
2023-04-28T11:43:48.542Z,101422.59
2023-04-28T11:46:20.666Z,101423.19
2023-04-28T11:48:49.008Z,101435.69
2023-04-28T11:51:33.814Z,101425.25
2023-04-28T11:54:02.509Z,101424.03
2023-04-28T11:56:30.723Z,101437.44
2023-04-28T11:59:08.113Z,101426.97
2023-04-28T12:01:44.939Z,101410.28
2023-04-28T12:04:14.239Z,101415.44
2023-04-28T12:06:42.572Z,101404.59
2023-04-28T12:09:17.329Z,101405.19
2023-04-28T12:11:58.436Z,101414.03
2023-04-28T12:14:27.577Z,101409.22
2023-04-28T12:16:55.477Z,101416.06
2023-04-28T12:19:23.341Z,101408.94
2023-04-28T12:22:02.025Z,101407.56
2023-04-28T12:24:30.124Z,101407.88
2023-04-28T12:27:16.944Z,101401.44
2023-04-28T12:29:47.236Z,101389.38
2023-04-28T12:32:15.636Z,101393.94
2023-04-28T12:34:45.306Z,101384.19
2023-04-28T12:37:13.757Z,101388.56
2023-04-28T12:39:43.227Z,101371.66
2023-04-28T12:42:11.785Z,101378.31
2023-04-28T12:44:40.819Z,101372.88
2023-04-28T12:47:11.859Z,101369.25
2023-04-28T12:49:39.654Z,101371.72
2023-04-28T12:52:07.890Z,101364.69
2023-04-28T12:54:35.786Z,101361.56
2023-04-28T12:57:04.110Z,101358.84
2023-04-28T12:59:32.710Z,101357.03
2023-04-28T13:02:00.629Z,101341.72
2023-04-28T13:04:31.226Z,101330.16
2023-04-28T13:06:59.601Z,101355.25
2023-04-28T13:09:27.958Z,101345.59
2023-04-28T13:11:55.651Z,101333.31
2023-04-28T13:14:24.072Z,101329.16
2023-04-28T13:16:53.205Z,101324.34
2023-04-28T13:19:21.008Z,101320.44
2023-04-28T13:21:50.193Z,101320.50
2023-04-28T13:24:17.924Z,101327.22
2023-04-28T13:26:45.765Z,101330.78
2023-04-28T13:29:14.399Z,101316.97
2023-04-28T13:31:42.336Z,101311.63
2023-04-28T13:34:15.841Z,101312.75
2023-04-28T13:36:43.862Z,101309.06
2023-04-28T13:39:14.590Z,101307.84
2023-04-28T13:41:42.784Z,101312.00
2023-04-28T13:44:10.689Z,101309.59
2023-04-28T13:46:38.485Z,101294.28
2023-04-28T13:49:06.262Z,101299.59
2023-04-28T13:51:34.013Z,101297.75
2023-04-28T13:54:04.391Z,101296.13
2023-04-28T13:56:33.812Z,101294.31
2023-04-28T13:59:01.664Z,101299.91
2023-04-28T14:01:29.548Z,101294.34
2023-04-28T14:03:57.768Z,101296.97
2023-04-28T14:06:26.095Z,101285.44
2023-04-28T14:08:53.930Z,101283.22
2023-04-28T14:11:22.619Z,101277.09
2023-04-28T14:13:51.747Z,101279.78
2023-04-28T14:16:19.705Z,101272.25
2023-04-28T14:18:47.478Z,101262.16
2023-04-28T14:21:15.211Z,101260.63
2023-04-28T14:23:42.959Z,101267.13
2023-04-28T14:26:10.689Z,101269.91
2023-04-28T14:28:38.551Z,101262.41
2023-04-28T14:31:08.732Z,101259.75
2023-04-28T14:33:37.047Z,101260.84
2023-04-28T14:36:05.367Z,101267.94
2023-04-28T14:38:33.214Z,101266.41
2023-04-28T14:41:02.325Z,101258.88
2023-04-28T14:43:30.060Z,101260.09
2023-04-28T14:45:58.566Z,101270.72
2023-04-28T14:48:27.682Z,101267.22
2023-04-28T14:50:55.406Z,101261.00
2023-04-28T14:53:23.661Z,101270.28
2023-04-28T14:55:51.645Z,101258.00
2023-04-28T14:58:19.339Z,101249.97
2023-04-28T15:00:47.558Z,101239.63
2023-04-28T15:03:15.522Z,101238.13
2023-04-28T15:05:47.264Z,101246.66
2023-04-28T15:08:15.061Z,101244.06
2023-04-28T15:10:42.882Z,101237.16
2023-04-28T15:13:10.643Z,101237.00
2023-04-28T15:15:38.451Z,101233.22
2023-04-28T15:18:06.199Z,101232.97
2023-04-28T15:20:34.366Z,101224.63
2023-04-28T15:23:03.518Z,101234.88
2023-04-28T15:25:31.313Z,101230.72
2023-04-28T15:27:59.080Z,101238.28
2023-04-28T15:30:26.892Z,101234.09
2023-04-28T15:32:54.650Z,101229.16
2023-04-28T15:35:22.667Z,101227.13
2023-04-28T15:37:52.121Z,101217.09
2023-04-28T15:40:21.786Z,101218.53
2023-04-28T15:42:51.803Z,101219.88
2023-04-28T15:45:20.580Z,101214.59
2023-04-28T15:47:50.223Z,101224.41
2023-04-28T15:50:23.010Z,101219.50
2023-04-28T15:52:51.295Z,101213.25
2023-04-28T15:55:22.316Z,101221.38
2023-04-28T15:57:50.106Z,101208.34
2023-04-28T16:00:17.999Z,101206.69
2023-04-28T16:02:46.297Z,101209.88
2023-04-28T16:05:14.470Z,101205.56
2023-04-28T16:07:42.368Z,101207.56
2023-04-28T16:10:11.903Z,101196.19
2023-04-28T16:12:42.104Z,101201.31
2023-04-28T16:15:12.657Z,101196.41
2023-04-28T16:17:41.144Z,101197.50
2023-04-28T16:20:10.950Z,101194.28
2023-04-28T16:22:40.029Z,101195.22
2023-04-28T16:25:09.262Z,101193.03
2023-04-28T16:27:37.698Z,101181.28
2023-04-28T16:30:08.235Z,101191.78
2023-04-28T16:32:36.567Z,101197.41
2023-04-28T16:35:06.267Z,101195.81
2023-04-28T16:37:36.347Z,101188.88
2023-04-28T16:40:04.619Z,101196.78
2023-04-28T16:42:32.335Z,101193.72
2023-04-28T16:45:00.073Z,101197.09
2023-04-28T16:47:31.104Z,101191.00
2023-04-28T16:49:58.959Z,101184.78
2023-04-28T16:52:27.561Z,101188.38
2023-04-28T16:54:56.013Z,101184.00
2023-04-28T16:57:23.771Z,101193.09
2023-04-28T16:59:52.212Z,101180.66
2023-04-28T17:02:20.180Z,101167.25
2023-04-28T17:04:49.319Z,101181.44
2023-04-28T17:07:17.472Z,101181.59
2023-04-28T17:09:45.530Z,101187.31
2023-04-28T17:12:13.317Z,101181.66
2023-04-28T17:14:41.559Z,101180.31
2023-04-28T17:17:09.272Z,101185.94
2023-04-28T17:19:37.537Z,101190.88
2023-04-28T17:22:06.637Z,101184.28
2023-04-28T17:24:34.485Z,101188.00
2023-04-28T17:27:02.282Z,101191.06
2023-04-28T17:29:29.998Z,101192.00
2023-04-28T17:31:57.763Z,101187.66
2023-04-28T17:34:25.484Z,101182.22
2023-04-28T17:36:53.195Z,101177.59
2023-04-28T17:39:22.357Z,101181.16
2023-04-28T17:41:50.058Z,101185.94
2023-04-28T17:44:17.769Z,101187.19
2023-04-28T17:46:45.617Z,101179.38
2023-04-28T17:49:13.356Z,101187.50
2023-04-28T17:51:41.093Z,101183.63
2023-04-28T17:54:09.662Z,101183.19
2023-04-28T17:56:39.403Z,101183.31
2023-04-28T17:59:08.834Z,101188.91
2023-04-28T18:01:36.848Z,101191.38
2023-04-28T18:04:04.754Z,101193.19
2023-04-28T18:06:32.460Z,101195.78
2023-04-28T18:09:00.186Z,101187.72
2023-04-28T18:11:28.145Z,101195.34
2023-04-28T18:13:58.712Z,101192.28
2023-04-28T18:16:26.966Z,101190.56
2023-04-28T18:18:54.723Z,101183.81
2023-04-28T18:21:22.477Z,101183.72
2023-04-28T18:23:50.205Z,101187.34
2023-04-28T18:26:17.913Z,101190.75
2023-04-28T18:28:48.048Z,101194.09
2023-04-28T18:31:17.273Z,101197.16
2023-04-28T18:33:45.147Z,101194.28
2023-04-28T18:36:13.018Z,101198.59
2023-04-28T18:38:41.271Z,101199.31
2023-04-28T18:41:16.168Z,101195.44
2023-04-28T18:43:44.493Z,101194.50
2023-04-28T18:46:12.262Z,101201.09
2023-04-28T18:48:42.118Z,101202.66
2023-04-28T18:51:10.073Z,101189.69
2023-04-28T18:53:38.325Z,101206.69
2023-04-28T18:56:06.255Z,101208.47
2023-04-28T18:58:34.049Z,101199.63
2023-04-28T19:01:01.819Z,101212.16
2023-04-28T19:03:30.371Z,101214.03
2023-04-28T19:05:59.498Z,101218.13
2023-04-28T19:08:27.304Z,101223.53
2023-04-28T19:10:55.025Z,101209.59
2023-04-28T19:13:22.815Z,101219.88
2023-04-28T19:15:53.554Z,101224.34
2023-04-28T19:18:22.479Z,101222.09
2023-04-28T19:20:52.197Z,101223.84
2023-04-28T19:23:21.636Z,101220.03
2023-04-28T19:25:49.468Z,101218.47
2023-04-28T19:28:17.283Z,101211.06
2023-04-28T19:30:45.053Z,101214.28
2023-04-28T19:33:12.820Z,101204.03
2023-04-28T19:35:41.670Z,101192.38
2023-04-28T19:38:09.542Z,101189.09
2023-04-28T19:40:39.757Z,101194.72
2023-04-28T19:43:07.527Z,101198.47
2023-04-28T19:45:36.040Z,101194.28
2023-04-28T19:48:04.043Z,101191.72
2023-04-28T19:50:32.297Z,101184.44
2023-04-28T19:53:00.061Z,101181.72
2023-04-28T19:55:27.919Z,101181.72
2023-04-28T19:57:57.500Z,101165.03
2023-04-28T20:00:25.597Z,101164.72
2023-04-28T20:02:53.462Z,101167.94
2023-04-28T20:05:21.769Z,101166.31
2023-04-28T20:07:49.862Z,101160.34
2023-04-28T20:10:19.204Z,101154.06
2023-04-28T20:12:46.991Z,101148.13
2023-04-28T20:15:16.783Z,101128.91
2023-04-28T20:17:44.695Z,101124.47
2023-04-28T20:20:12.858Z,101129.59
2023-04-28T20:22:41.399Z,101127.03
2023-04-28T20:25:10.758Z,101132.81
2023-04-28T20:27:38.665Z,101121.75
2023-04-28T20:30:07.944Z,101126.19
2023-04-28T20:32:38.338Z,101114.00
2023-04-28T20:35:07.258Z,101104.25
2023-04-28T20:37:35.203Z,101111.19
2023-04-28T20:40:03.143Z,101107.94
2023-04-28T20:42:30.880Z,101103.69
2023-04-28T20:44:58.718Z,101097.59
2023-04-28T20:47:26.528Z,101084.94
2023-04-28T20:49:55.713Z,101106.72
2023-04-28T20:52:23.472Z,101112.31
2023-04-28T20:54:52.134Z,101091.97
2023-04-28T20:57:19.860Z,101062.22
2023-04-28T20:59:47.602Z,101063.13
2023-04-28T21:02:15.504Z,101061.78
2023-04-28T21:04:43.307Z,101044.44
2023-04-28T21:07:12.417Z,101041.00
2023-04-28T21:09:42.099Z,101030.78
2023-04-28T21:12:09.905Z,101036.56
2023-04-28T21:14:37.657Z,101007.56
2023-04-28T21:17:05.535Z,100987.63
2023-04-28T21:19:33.535Z,101005.00
2023-04-28T21:22:02.176Z,101007.22
2023-04-28T21:24:31.282Z,101006.66
2023-04-28T21:26:59.563Z,101005.03
2023-04-28T21:29:27.600Z,100996.63
2023-04-28T21:31:55.831Z,100988.72
2023-04-28T21:34:23.568Z,100978.03
2023-04-28T21:36:51.344Z,100971.91
2023-04-28T21:39:19.114Z,100975.22
2023-04-28T21:41:48.315Z,100959.41
2023-04-28T21:44:16.441Z,100956.84
2023-04-28T21:46:44.198Z,100978.63
2023-04-28T21:49:11.961Z,100949.03
2023-04-28T21:51:42.195Z,100944.50
2023-04-28T21:54:09.945Z,100921.28
2023-04-28T21:56:37.657Z,100944.19
2023-04-28T21:59:06.914Z,100923.25
2023-04-28T22:01:35.645Z,100883.13
2023-04-28T22:04:03.842Z,100883.59
2023-04-28T22:06:32.470Z,100869.41
2023-04-28T22:09:01.366Z,100881.22
2023-04-28T22:11:29.507Z,100876.97
2023-04-28T22:13:57.239Z,100857.28
2023-04-28T22:16:26.484Z,100867.34
2023-04-28T22:18:54.412Z,100869.38
2023-04-28T22:21:22.159Z,100883.72
2023-04-28T22:23:49.911Z,100852.19
2023-04-28T22:26:19.159Z,100837.28
2023-04-28T22:28:46.875Z,100850.91
2023-04-28T22:31:14.687Z,100816.41
2023-04-28T22:33:43.811Z,100828.22
2023-04-28T22:36:12.025Z,100809.38
2023-04-28T22:38:39.771Z,100800.75
2023-04-28T22:41:07.530Z,100758.66
2023-04-28T22:43:35.245Z,100789.81
2023-04-28T22:46:03.039Z,100760.38
2023-04-28T22:48:30.815Z,100747.22
2023-04-28T22:50:59.903Z,100745.72
2023-04-28T22:53:27.635Z,100754.63
2023-04-28T22:55:56.738Z,100769.22
2023-04-28T22:58:24.518Z,100731.94
2023-04-28T23:00:52.244Z,100746.56
2023-04-28T23:03:21.300Z,100767.28
2023-04-28T23:05:49.151Z,100753.22
2023-04-28T23:08:18.241Z,100745.03
2023-04-28T23:10:46.387Z,100747.53
2023-04-28T23:13:14.120Z,100734.19
2023-04-28T23:15:41.860Z,100727.47
2023-04-28T23:18:09.681Z,100709.13
2023-04-28T23:20:37.372Z,100688.97
2023-04-28T23:23:05.328Z,100664.47
2023-04-28T23:25:34.432Z,100663.19
2023-04-28T23:28:02.161Z,100683.25
2023-04-28T23:30:29.880Z,100675.44
2023-04-28T23:32:57.687Z,100683.63
2023-04-28T23:35:25.580Z,100690.84
2023-04-28T23:37:53.372Z,100680.44
2023-04-28T23:40:21.161Z,100680.16
2023-04-28T23:42:50.278Z,100683.94
2023-04-28T23:45:18.091Z,100687.72
2023-04-28T23:47:45.851Z,100699.66
2023-04-28T23:50:13.578Z,100691.75
2023-04-28T23:52:41.318Z,100670.44
2023-04-28T23:55:10.422Z,100687.97
2023-04-28T23:57:38.868Z,100689.66
